Kmdw taf.

KMDW METAR TAF. AREA. AREA METARS AREA TAFS. ADVISORIES. 1 AIRMET. TRENDS. WX HISTORY WX GRAPHS. Search icon. KMDW METAR TAF AREA METARS AREA TAFS 1 AIRMET ...

Kmdw taf. Things To Know About Kmdw taf.

NOTE: LAMP data beyond the time of the TAF data is denoted as LAMP in Type and colored magenta. Raw TAF KMDW 190540Z 1906/2012 16005KT P6SM SCT100 BKN250 FM191100 19008KT 6SM -SHRA SCT050 OVC080 TEMPO 1914/1918 4SM RA BR SCT030 BKN050 FM191900 15012G20KT P6SM SCT070 OVC100 FM200000 14008KT P6SM BKN080 FM200800 20008KT P6SM SCT080 BKN250 METAR Board Radar Display Forecast DiscussionThis entry means. Rain began at 1835z. (Refer to Figure 12) What are the current conditions depicted for Chicago Midway Airport (KMDW)? Sky 700ft overcast, visibility 1-1/2 SM, rain. (Refer to figure 14) The base and tops of the overcast layer reported by a pilot are. 7,200 ft MSL and 8,900 ft MSL.TAF Home. Plot. Data. Board. Info. For situational awareness. Not to be used for flight planning purposes. IDs: KMDW - Chicago/Midway Intl, IL, US. Issued at 0901 UTC ...KMDW - Chicago/Midway Intl, IL, US. Issued at 0540 UTC 18 Sep 2023. Updated at 0757 UTC 18 Sep 2023. NOTE: LAMP data beyond the time of the TAF data is denoted as LAMP in Type and colored magenta. Raw TAF. KMDW 180540Z 1806/1912 34005KT P6SM SCT050. FM182000 11006KT P6SM SCT060. METAR Board. Radar Display. Forecast Discussion.

Impacts TAF Board. TAF Home. Plot. Data. Board. Info. For situational awareness. Not to be used for flight planning purposes. IDs: KMDW - Chicago/Midway Intl, IL, US. Issued at 1120 UTC 25 Apr 2023. Updated at 1327 UTC 25 Apr 2023. Potential Impact: None: Slight: Moderate: High: Time <<26/02Z 26/03Z 26/04Z 26/05Z 26/06ZImpacts TAF Board. TAF Home. Plot. Data. Board. Info. For situational awareness. Not to be used for flight planning purposes. IDs: KMDW - Chicago/Midway Intl, IL, US. Issued at …

Cumuliform clouds and showery precipitation. What are characteristics of unstable air? Turbulence and good surface visibility. (Refer to Figure 15) How long is the TAF at KMEM valid for? The 12th of the month at 1800z to the 13th of the month at 2400z. What is a characteristic of stable air? Stratiform clouds.METAR TAF : Current weather observation and Forecast, Chicago Midway International Airport Illinois United States. Satellite images. 10-day forecasts. ... TAF: KMDW 111120Z 1112/1218 23005KT P6SM SCT100 FM112200 13006KT 6SM -SHRA SCT030 BKN050 FM120200 08008KT 4SM -SHRA SCT015 BKN025 PROB30 1203/1209 2SM TSRA …

Impacts TAF Board. TAF Home. Plot. Data. Board. Info. For situational awareness. Not to be used for flight planning purposes. IDs: KMDW - Chicago/Midway Intl, IL, US. Issued at 1120 UTC 30 Mar 2023. Updated at 1308 UTC 30 Mar 2023. Potential Impact: None: Slight: Moderate: High: Time 1253Z 30/14Z 30/15Z 30/16Z 30/17Z 30/18ZMETAR & TAF. Decodificador visual. Aeropuerto Internacional Midway KMDW. Compartir Registrarse ¡Gratis! Iniciar sesión Configuración Modo oscuro. METAR ... Guía ; Pantalla completa Compartir. Actualizar. NOTAM Aeropuerto Internacional Midway (KMDW) 14 abril 4:33 p. m. LT 3mnd . 04/152 13 abr. 2022 6:59 p. m. LT KMDW.METAR TAF : Current weather observation and Forecast, Chicago Midway International Airport Illinois United States. Satellite images. 10-day forecasts. ... TAF: KMDW 211728Z 2118/2224 09008KT P6SM VCSH SCT060 OVC100 TEMPO 2118/2122 5SM -SHRA SCT040 BKN070 FM220000 09005KT P6SM VCSH SCT060 BKN100 PROB30 …Impacts TAF Board. TAF Home. Plot. Data. Board. Info. For situational awareness. Not to be used for flight planning purposes. IDs: KMDW - Chicago/Midway Intl, IL, US. Issued at …

Weather radar, wind and waves forecast for kiters, surfers, paragliders, pilots, sailors and anyone else. Worldwide animated weather map, with easy to use layers and precise spot forecast. METAR, TAF and NOTAMs for any airport in the World. SYNOP codes from weather stations and buoys. Forecast models ECMWF, GFS, NAM and NEMS

NOTE: LAMP data beyond the time of the TAF data is denoted as LAMP in Type and colored magenta. Raw TAF KMDW 200312Z 2003/2106 16009KT P6SM SCT080 OVC100 FM200800 20008KT P6SM SCT080 BKN200 TEMPO 2008/2012 6SM SHRA BKN070 FM202200 16007KT P6SM BKN200 METAR Board Radar Display Forecast Discussion

NOTE: LAMP data beyond the time of the TAF data is denoted as LAMP in Type and colored magenta. Raw TAF KMDW 271730Z 2718/2824 09010KT P6SM VCSH SCT015 BKN025 FM280100 07008KT P6SM SCT008 BKN020 FM280600 06006KT 5SM BR BKN008 FM281500 06008KT P6SM BKN015 FM282100 05008KT P6SM SCT025 BKN035 Raw METAR KMDW 271953Z 09013KT 9SM SCT015 BKN036 OVC044 20/16 A3004 RMK AO2 SLP166 T02000161 KMDW 271853Z ...KMDW. MDW ATIS INFO A 0553Z. 19004KT 10SM CLR 22/14 A3013 (THREE ZERO ONE THREE) RMK AO2 SLP193 10250 20211 402940172 58003. RNAV Y RWY 22L APCH IN USE. LNDG AND DEPG RWYS 22L. NOTAMS... RWY 31R, 13L CLSD, RWY 4L, 22R CLSD, RWY 31L, 13R CLSD. AIRCRAFT SHOULD OPERATE MODE CEE ON ALL TWYS AND RWYS. CTC TWR 135.2 FOR ALL SERVICES. READBACK ALL RWY ...PAMR 280153Z 29004KT 10SM CLR 11/01 A2980 RMK AO2 SLP091 T01060006. PAMR 280053Z 30004KT 10SM CLR 11/M01 A2979 RMK AO2 SLP087 T01061006. PAMR 272353Z 00000KT 10SM CLR 11/M02 A2978 RMK AO2 SLP084 T01061017 10111 20039 53004. PAMR 272253Z 03005KT 10SM CLR 11/M02 A2977 RMK AO2 SLP082 T01061022.Chicago Midway International Airport is a large airport in Illinois, United States. The airport is located at latitude 41.78597 and longitude -87.75242. The airport has 5 runways: 13C/31C, 4R/22L, 4L/22R, 13L/31R and 13R/31L. The ICAO airport code of this field is KMDW. The local airport ID (FAA LID) of this airport is MDW.Data at: 1431 UTC 04 Oct 2023. KMDW 041353Z 20008KT 10SM FEW070 FEW090 SCT200 BKN250 23/14 A3000 RMK AO2 SLP150 T02280144. KMDW 041140Z 0412/0518 21013G22KT P6SM BKN100. FM050000 22008KT P6SM VCSH SCT035 BKN080. FM050700 23006KT 6SM -RA SCT025 OVC040.KMDW - Chicago/Midway Intl, IL, US Issued at 1120 UTC 11 Oct 2023 Updated at 1129 UTC 11 Oct 2023 Potential Impact None Slight Moderate High NOTE: LAMP data beyond the time of the TAF data is denoted as LAMP in Type and colored magenta. Raw TAF KMDW 111120Z 1112/1218 23005KT P6SM SCT100 FM112200 13006KT 6SM -SHRA SCT030 BKN050

kmdw: taf: 2023/10/05: 10:30 utc: noaa: taf amd kmdw 051028z 0510/0612 22005 kt 6 sm-ra br sct 025 o vc 035 tempo 0510/0513 3 sm-ra br sct 015 bkn 025 fm 051300 24006 kt p6 sm sct 015 bkn 050 tempo 0513/0517 5 sm-ra br sct 010 bkn 015 fm 060300 30008 kt p6 sm sct 070 METAR Chicago Midway International Airport - KMDW/MDW. Chicago Midway International Airport is a large airport in Illinois, United States. The airport is located at latitude 41.78594 and longitude -87.75253. The airport has 5 runways: 13C/31C, 4R/22L, 4L/22R, 13L/31R and 13R/31L.What are the current conditions depicted for Chicago Midway Airport (KMDW)? -METAR KINK 12185z 11012G18KT 15SM SKC 25/17 A3000. -METAR KBOI 121854z 13004KT 30SM SCT150 17/6 A3015. -METAR KLAX 121852z 25004KT 6SM BR SCT007 SCT250 16/15 A2991. -SPECI KMDW 121856z 32005KT 1 1/2SM RA OVC007 17/16 A2980 RMK RAB35.May 1, 2023 · METAR Chicago Midway International Airport - KMDW/MDW. Chicago Midway International Airport is a large airport in Illinois, United States. The airport is located at latitude 41.78594 and longitude -87.75253. The airport has 5 runways: 13C/31C, 4R/22L, 4L/22R, 13L/31R and 13R/31L. Chicago Midway International Airport (KMDW) METAR. Weather conditions on Tue, 10 Oct 2023 09:53:00 +0000 (18 min. ago): Present conditions: Dry; Clouds: A few at 3048 meters; Visibility: 16093 meters; Wind: 280 degrees at 5 knots; Temperature: 6 celsius; Dew point:-1 celsius; Pressure: 29.79 inHg ; Remarks: AO2 SLP088 T00561011METAR KMDW 110053Z 25009KT 10SM FEW060 SCT090 BKN250 26/19 A2977 RMK AO2 SLP071 T02560194. The wind is from direction 250° with a speed of 9 kt. Visibility is 10 mi. The ceiling, broken or more, is 25,000 ft. …Flight plan departing from KMDW - Chicago Midway Intl, arriving at KJFK - John F Kennedy Intl. Distance 636 nm / 1,178 km. Download for FSX, X-Plane, PMDG, Infinite Flight, PDF or other products. ... TAF AMD KMDW 212038Z 2121/2224 05009KT P6SM FEW030 FEW300 FM220700 01004KT P6SM FEW015 FEW300 FM221300 11008KT P6SM SCT030 …

TAF for: KDEN (Denver Intl, CO, US) issued at 0212 UTC 13 Oct 2023: Text: KDEN 130212Z 1302/1406 36024G44KT P6SM VCSH SCT060 BKN080 BKN120 : Forecast period: 0200 to 0400 UTC 13 October 2023: Forecast type: FROM: standard forecast or significant change: Winds: from the N (360 degrees) at 28 MPH (24 knots; 12.3 m/s) gusting to 51 MPH (44 knots ...KMDW. MDW ATIS INFO A 0553Z. 19004KT 10SM CLR 22/14 A3013 (THREE ZERO ONE THREE) RMK AO2 SLP193 10250 20211 402940172 58003. RNAV Y RWY 22L APCH IN USE. LNDG AND DEPG RWYS 22L. NOTAMS... RWY 31R, 13L CLSD, RWY 4L, 22R CLSD, RWY 31L, 13R CLSD. AIRCRAFT SHOULD OPERATE MODE CEE ON ALL TWYS AND RWYS. CTC TWR 135.2 FOR ALL SERVICES. READBACK ALL RWY ...

Impacts TAF Board. TAF Home. Plot. Data. Board. Info. For situational awareness. Not to be used for flight planning purposes. IDs: KMDW - Chicago/Midway Intl, IL, US. Issued at 1505 UTC 05 Jan 2023. Updated at 1700 UTC 05 Jan 2023. Potential Impact: None: Slight: Moderate: High: Time 1653Z 05/17Z 05/18Z 05/19Z 05/20Z 05/21ZNOTE: LAMP data beyond the time of the TAF data is denoted as LAMP in Type and colored magenta. Raw TAF KMDW 271730Z 2718/2824 09010KT P6SM VCSH SCT015 BKN025 FM280100 07008KT P6SM SCT008 BKN020 FM280600 06006KT 5SM BR BKN008 FM281500 06008KT P6SM BKN015 FM282100 05008KT P6SM SCT025 BKN035 Raw METAR KMDW 271953Z 09013KT 9SM SCT015 BKN036 OVC044 20/16 A3004 RMK AO2 SLP166 T02000161 KMDW 271853Z ... TAF Message type : TAF-routine or TAF AMD-amended forecast, METAR-hourly, SPECI-special or TESTM-non-commissioned ASOS report METAR KPIT ICAO location indicator KPIT 091730Z Issuance time: ALL times in UTC “Z”, 2-digit date, 4-digit time 091955Z 091818 Valid period: 2-digit date, 2-digit beginning, 2-digit ending timesNOTE: LAMP data beyond the time of the TAF data is denoted as LAMP in Type and colored magenta. Raw TAF KMDW 190540Z 1906/2012 16005KT P6SM SCT100 BKN250 FM191100 19008KT 6SM -SHRA SCT050 OVC080 TEMPO 1914/1918 4SM RA BR SCT030 BKN050 FM191900 15012G20KT P6SM SCT070 OVC100 FM200000 14008KT P6SM BKN080 FM200800 20008KT P6SM SCT080 BKN250 METAR Board Radar Display Forecast Discussion taf; kmdw 19nm ne : 100255z 1003/1106 28007kt p6sm sct060 bkn100 fm101600 28012g20kt p6sm bkn060 fm102300 33006kt p6sm sct060 kdpa 20nm n :NOTE: LAMP data beyond the time of the TAF data is denoted as LAMP in Type and colored magenta. Raw TAF. KMDW 292057Z 2921/3024 13007KT P6SM FEW030. Raw METAR. KMDW 292053Z 13006KT 10SM BKN030 23/16 A3011 RMK AO2 SLP190 T02330161 58004. KMDW 291953Z 10004KT 10SM FEW030 23/15 A3011 RMK AO2 SLP189 T02330150.TAF for: KMDW (Chicago/Midway Intl, IL, US) issued at 2330 UTC 11 Oct 2023: Text: KMDW 112330Z 1200/1306 12007KT 6SM -SHRA SCT050 BKN070 : Forecast period: 0000 to 0300 UTC 12 October 2023: Forecast type: FROM: standard forecast or significant change: Winds: from the ESE (120 degrees) at 8 MPH (7 knots; 3.6 m/s) Visibility: 6 sm ( 10 km ...

data at: 2133 utc 24 sep 2023. kmdw 242053z 10009kt 10sm few100 bkn180 bkn250 24/15 a2999 rmk ao2 slp151 t02440150 56010 $ kmdw 242051z 2421/2524 10008kt p6sm few100 sct200 fm250300 09009kt p6sm vcsh sct080 bkn200 fm250600 11005kt p6sm few060 bkn100 fm252000 07009kt p6sm bkn090

A. aircraft identification or the pilot's name B. true airspeed C. fuel on board. 3528-1. when speaking to an AFSS weather briefer, you should state. A. PIC's full name & address B. summary of qualifications. C. whether the flight is VFR or IFR. Study Chapter 7 flashcards.

NOTE: LAMP data beyond the time of the TAF data is denoted as LAMP in Type and colored magenta. Raw TAF KMDW 200312Z 2003/2106 16009KT P6SM SCT080 OVC100 FM200800 20008KT P6SM SCT080 BKN200 TEMPO 2008/2012 6SM SHRA BKN070 FM202200 16007KT P6SM BKN200 METAR Board Radar Display Forecast DiscussionTAF Message type : TAF-routine or TAF AMD-amended forecast, METAR-hourly, SPECI-special or TESTM-non-commissioned ASOS report METAR KPIT ICAO location indicator KPIT 091730Z Issuance time: ALL times in UTC “Z”, 2-digit date, 4-digit time 091955Z 091818 Valid period: 2-digit date, 2-digit beginning, 2-digit ending timesMETAR for: KMDW (Chicago/Midway Intl, IL, US) Text: KMDW 061053Z 26008KT 10SM CLR 11/04 A2996 RMK AO2 SLP141 T01060044: Temperature: 10.6°C ( 51°F)NOTE: LAMP data beyond the time of the TAF data is denoted as LAMP in Type and colored magenta. Raw TAF. KMDW 292057Z 2921/3024 13007KT P6SM FEW030. Raw METAR. KMDW 292053Z 13006KT 10SM BKN030 23/16 A3011 RMK AO2 SLP190 T02330161 58004. KMDW 291953Z 10004KT 10SM FEW030 23/15 A3011 RMK AO2 SLP189 T02330150.Question 17: According to 14 CFR part 107, the responsibility to inspect the small UAS to ensure it is in a safe operating condition rests with the. A: remote pilot-in-command. B: visual observer. C: owner of the small UAS. Explain: Being the remote Pilot in Command (PIC) means you are responsible for everything.Terminal Area Forecast. KMDW. RAW. Reported. Wed, 10/11 12:20 PM CDT. Valid. ... KMDW 111720Z 1118/1224 23005KT P6SM SCT080 FM112300 11006KT P6SM VCSH SCT030 BKN050 AVIATION WEATHER CENTER SCN23-79: Upgrade of Aviation Weather Center Website METAR Data METAR Home Plot Data Board Info IDs: Format: Raw Decoded Include TAF Data at: 0455 UTC 09 Oct 2023 Page loaded: 04:55 UTC | 09:55 PM Pacific | 10:55 PM Mountain | 11:55 PM Central | 12:55 AM EasternCumuliform clouds and showery precipitation. What are characteristics of unstable air? Turbulence and good surface visibility. (Refer to Figure 15) How long is the TAF at KMEM valid for? The 12th of the month at 1800z to the 13th of the month at 2400z. What is a characteristic of stable air? Stratiform clouds.TAF for: KATL (Atlanta/Hartsfield I, GA, US) issued at 1952 UTC 10 Oct 2023: Text: KATL 101952Z 1020/1124 21013KT P6SM FEW050 SCT150 SCT250 : Forecast period: 2000 UTC 10 October 2023 to 0200 UTC 11 October 2023: Forecast type: FROM: standard forecast or significant change: Winds: from the SSW (210 degrees) at 15 MPH …25 sept 2023 ... METAR for Chicago Midway International airport KMDW MDW. KMDW 251353Z 11009KT 10SM -RA SCT047 BKN090 BKN110 17/16 A3010 RMK AO2 RAB12 TSE32 ...

Impacts TAF Board. TAF Home. Plot. Data. Board. Info. For situational awareness. Not to be used for flight planning purposes. IDs: KMDW - Chicago/Midway Intl, IL, US. Issued at 2100 UTC 15 Mar 2023. Updated at 2212 UTC 15 Mar 2023. Potential Impact: None: Slight: Moderate: High: Time <<16/11Z 16/12Z 16/13Z 16/14Z 16/15ZMETAR KMDW 040653Z 22004KT 10SM FEW110 FEW170 08/03 A2996 RMK AO2 SLP148 T00780028. ... METAR TAF KIGQ - Lansing Municipal Airport (18 NM) METAR KGYY - Gary/Chicago International Airport (18 NM) METAR TAF KLOT - Lewis University Airport (19 NM) METAR. 4 May 01:53 LT 5mndTAF for: KDEN (Denver Intl, CO, US) issued at 0212 UTC 13 Oct 2023: Text: KDEN 130212Z 1302/1406 36024G44KT P6SM VCSH SCT060 BKN080 BKN120 : Forecast period: 0200 to 0400 UTC 13 October 2023: Forecast type: FROM: standard forecast or significant change: Winds: from the N (360 degrees) at 28 MPH (24 knots; 12.3 m/s) …Instagram:https://instagram. allen co pvaglock 19x vs 19young living virtual office login usacenturylink outage phoenix METAR Home. Plot. Data. Board. Info. IDs: Format: Raw Decoded Include TAF. Data at: 1007 UTC 11 Oct 2023. Region: TOP. KATL 110952Z 00000KT 10SM BKN200 BKN250 18/13 A2991 RMK AO2 SLP121 T01780133 $. the morning call newspaper obituariesdakota closets between 1200Z and 1400Z the sky condition may temporarily be one-half mile<br />. visibility with fog.<br />. From 1600Z until the next forecast, the wind will be variable at 4 knots, with the<br />. visibility greater than 6 statute miles and no significant weather and clear sky<br />. conditions. METAR/TAF Quiz METAR TAF.Weather radar, wind and waves forecast for kiters, surfers, paragliders, pilots, sailors and anyone else. Worldwide animated weather map, with easy to use layers and precise spot forecast. METAR, TAF and NOTAMs for any airport in the World. SYNOP codes from weather stations and buoys. Forecast models ECMWF, GFS, NAM and NEMS ffxi beeswax In the METAR you will also find the air pressure at the mean sea level (QNH). This is calculated by recalculating the air pressure at terrain height (QFE) back to sea level. Air pressure can be expressed in inches of mercury (preceded by an A) or hectopascals (preceded by a Q). A2994 means air pressure of 29.94 inHg.TAF for: KMDW (Chicago/Midway Intl, IL, US) issued at 1120 UTC 06 Aug 2023 ... KMDW 061120Z 0612/0718 05015G22KT P6SM VCSH BKN012 OVC025 : Forecast period: 1200 to 1900 UTC 06 August 2023: Forecast type: FROM: standard forecast or significant change: Winds: from the NE (50 degrees) at 17 MPH (15 knots; 7.7 m/s) …